sensor_id;sensor_type;location;lat;lon;timestamp;P1;durP1;ratioP1;P2;durP2;ratioP2
7330;SDS011;3706;49.198;7.064;2023-06-04T00:00:42;3.30;;;2.17;;
7330;SDS011;3706;49.198;7.064;2023-06-04T00:03:09;5.17;;;2.40;;
7330;SDS011;3706;49.198;7.064;2023-06-04T00:05:36;3.20;;;2.40;;
7330;SDS011;3706;49.198;7.064;2023-06-04T00:08:03;3.07;;;2.30;;
7330;SDS011;3706;49.198;7.064;2023-06-04T00:10:32;3.40;;;2.40;;
7330;SDS011;3706;49.198;7.064;2023-06-04T00:12:59;3.13;;;2.30;;
7330;SDS011;3706;49.198;7.064;2023-06-04T00:15:25;7.07;;;3.07;;
7330;SDS011;3706;49.198;7.064;2023-06-04T00:17:52;3.10;;;2.20;;
7330;SDS011;3706;49.198;7.064;2023-06-04T00:20:21;4.17;;;2.40;;
7330;SDS011;3706;49.198;7.064;2023-06-04T00:22:48;2.87;;;2.50;;
7330;SDS011;3706;49.198;7.064;2023-06-04T00:25:15;4.87;;;2.40;;
7330;SDS011;3706;49.198;7.064;2023-06-04T00:27:44;3.27;;;2.53;;
7330;SDS011;3706;49.198;7.064;2023-06-04T00:30:11;2.50;;;2.20;;
7330;SDS011;3706;49.198;7.064;2023-06-04T00:32:39;2.77;;;2.20;;
7330;SDS011;3706;49.198;7.064;2023-06-04T00:35:06;3.63;;;2.07;;
7330;SDS011;3706;49.198;7.064;2023-06-04T00:37:34;5.30;;;2.27;;
7330;SDS011;3706;49.198;7.064;2023-06-04T00:40:01;3.13;;;2.37;;
7330;SDS011;3706;49.198;7.064;2023-06-04T00:42:28;5.13;;;2.20;;
7330;SDS011;3706;49.198;7.064;2023-06-04T00:44:57;5.90;;;2.63;;
7330;SDS011;3706;49.198;7.064;2023-06-04T00:47:24;4.50;;;1.93;;
7330;SDS011;3706;49.198;7.064;2023-06-04T00:49:53;3.00;;;2.10;;
7330;SDS011;3706;49.198;7.064;2023-06-04T00:52:22;5.10;;;3.03;;
7330;SDS011;3706;49.198;7.064;2023-06-04T00:54:49;6.43;;;2.50;;
7330;SDS011;3706;49.198;7.064;2023-06-04T00:57:17;3.03;;;1.90;;
7330;SDS011;3706;49.198;7.064;2023-06-04T00:59:43;3.20;;;2.17;;
7330;SDS011;3706;49.198;7.064;2023-06-04T01:02:13;6.43;;;2.30;;
7330;SDS011;3706;49.198;7.064;2023-06-04T01:04:46;3.77;;;2.40;;
7330;SDS011;3706;49.198;7.064;2023-06-04T01:07:18;3.03;;;2.50;;
7330;SDS011;3706;49.198;7.064;2023-06-04T01:09:46;3.73;;;2.10;;
7330;SDS011;3706;49.198;7.064;2023-06-04T01:12:13;2.37;;;2.00;;
7330;SDS011;3706;49.198;7.064;2023-06-04T01:14:40;3.57;;;2.43;;
7330;SDS011;3706;49.198;7.064;2023-06-04T01:17:10;2.93;;;2.40;;
7330;SDS011;3706;49.198;7.064;2023-06-04T01:22:39;3.70;;;2.43;;
7330;SDS011;3706;49.198;7.064;2023-06-04T01:25:12;3.07;;;2.00;;
7330;SDS011;3706;49.198;7.064;2023-06-04T01:27:45;4.23;;;2.53;;
7330;SDS011;3706;49.198;7.064;2023-06-04T01:30:17;4.40;;;2.33;;
7330;SDS011;3706;49.198;7.064;2023-06-04T01:32:47;2.93;;;2.00;;
7330;SDS011;3706;49.198;7.064;2023-06-04T01:35:14;2.83;;;2.10;;
7330;SDS011;3706;49.198;7.064;2023-06-04T01:37:41;3.83;;;2.10;;
7330;SDS011;3706;49.198;7.064;2023-06-04T01:40:09;3.13;;;2.17;;
7330;SDS011;3706;49.198;7.064;2023-06-04T01:42:36;2.43;;;2.00;;
7330;SDS011;3706;49.198;7.064;2023-06-04T01:45:04;2.83;;;2.00;;
7330;SDS011;3706;49.198;7.064;2023-06-04T01:47:31;4.93;;;1.80;;
7330;SDS011;3706;49.198;7.064;2023-06-04T01:50:00;3.07;;;2.03;;
7330;SDS011;3706;49.198;7.064;2023-06-04T01:52:27;5.30;;;2.00;;
7330;SDS011;3706;49.198;7.064;2023-06-04T01:54:54;2.70;;;2.20;;
7330;SDS011;3706;49.198;7.064;2023-06-04T01:57:21;4.67;;;1.77;;
7330;SDS011;3706;49.198;7.064;2023-06-04T01:59:48;4.87;;;2.10;;
7330;SDS011;3706;49.198;7.064;2023-06-04T02:02:15;3.43;;;2.27;;
7330;SDS011;3706;49.198;7.064;2023-06-04T02:04:43;4.70;;;1.90;;
7330;SDS011;3706;49.198;7.064;2023-06-04T02:07:13;5.87;;;2.33;;
7330;SDS011;3706;49.198;7.064;2023-06-04T02:09:42;5.73;;;2.10;;
7330;SDS011;3706;49.198;7.064;2023-06-04T02:12:09;3.57;;;2.20;;
7330;SDS011;3706;49.198;7.064;2023-06-04T02:14:36;4.30;;;1.87;;
7330;SDS011;3706;49.198;7.064;2023-06-04T02:17:04;2.20;;;1.77;;
7330;SDS011;3706;49.198;7.064;2023-06-04T02:19:37;3.03;;;2.20;;
7330;SDS011;3706;49.198;7.064;2023-06-04T02:22:05;4.20;;;2.00;;
7330;SDS011;3706;49.198;7.064;2023-06-04T02:24:33;3.70;;;2.27;;
7330;SDS011;3706;49.198;7.064;2023-06-04T02:27:00;5.00;;;2.40;;
7330;SDS011;3706;49.198;7.064;2023-06-04T02:29:27;3.13;;;2.10;;
7330;SDS011;3706;49.198;7.064;2023-06-04T02:31:54;5.10;;;2.07;;
7330;SDS011;3706;49.198;7.064;2023-06-04T02:34:21;3.17;;;2.03;;
7330;SDS011;3706;49.198;7.064;2023-06-04T02:36:48;3.27;;;2.10;;
7330;SDS011;3706;49.198;7.064;2023-06-04T02:39:15;4.63;;;2.20;;
7330;SDS011;3706;49.198;7.064;2023-06-04T02:41:44;2.37;;;1.90;;
7330;SDS011;3706;49.198;7.064;2023-06-04T02:44:10;2.70;;;2.20;;
7330;SDS011;3706;49.198;7.064;2023-06-04T02:46:38;3.83;;;1.87;;
7330;SDS011;3706;49.198;7.064;2023-06-04T02:49:05;2.33;;;2.00;;
7330;SDS011;3706;49.198;7.064;2023-06-04T02:51:32;4.07;;;2.50;;
7330;SDS011;3706;49.198;7.064;2023-06-04T02:54:00;4.47;;;2.10;;
7330;SDS011;3706;49.198;7.064;2023-06-04T02:56:27;3.47;;;2.20;;
7330;SDS011;3706;49.198;7.064;2023-06-04T02:58:55;4.70;;;2.10;;
7330;SDS011;3706;49.198;7.064;2023-06-04T03:01:22;3.57;;;2.07;;
7330;SDS011;3706;49.198;7.064;2023-06-04T03:03:49;5.87;;;2.23;;
7330;SDS011;3706;49.198;7.064;2023-06-04T03:06:17;2.93;;;1.80;;
7330;SDS011;3706;49.198;7.064;2023-06-04T03:08:45;3.87;;;2.17;;
7330;SDS011;3706;49.198;7.064;2023-06-04T03:11:12;4.63;;;1.90;;
7330;SDS011;3706;49.198;7.064;2023-06-04T03:13:40;3.17;;;1.87;;
7330;SDS011;3706;49.198;7.064;2023-06-04T03:16:08;2.40;;;1.93;;
7330;SDS011;3706;49.198;7.064;2023-06-04T03:18:35;3.17;;;1.93;;
7330;SDS011;3706;49.198;7.064;2023-06-04T03:21:03;2.87;;;2.17;;
7330;SDS011;3706;49.198;7.064;2023-06-04T03:23:31;3.70;;;2.00;;
7330;SDS011;3706;49.198;7.064;2023-06-04T03:25:58;2.80;;;2.20;;
7330;SDS011;3706;49.198;7.064;2023-06-04T03:28:25;2.67;;;2.00;;
7330;SDS011;3706;49.198;7.064;2023-06-04T03:30:51;3.93;;;2.00;;
7330;SDS011;3706;49.198;7.064;2023-06-04T03:33:20;2.33;;;1.67;;
7330;SDS011;3706;49.198;7.064;2023-06-04T03:35:47;3.40;;;1.93;;
7330;SDS011;3706;49.198;7.064;2023-06-04T03:38:14;4.53;;;2.20;;
7330;SDS011;3706;49.198;7.064;2023-06-04T03:40:42;2.30;;;1.60;;
7330;SDS011;3706;49.198;7.064;2023-06-04T03:43:09;4.03;;;2.30;;
7330;SDS011;3706;49.198;7.064;2023-06-04T03:45:36;3.43;;;1.77;;
7330;SDS011;3706;49.198;7.064;2023-06-04T03:48:03;4.23;;;1.80;;
7330;SDS011;3706;49.198;7.064;2023-06-04T03:50:31;2.67;;;1.70;;
7330;SDS011;3706;49.198;7.064;2023-06-04T03:52:58;3.10;;;1.73;;
7330;SDS011;3706;49.198;7.064;2023-06-04T03:55:25;2.43;;;1.77;;
7330;SDS011;3706;49.198;7.064;2023-06-04T03:57:52;3.47;;;1.60;;
7330;SDS011;3706;49.198;7.064;2023-06-04T04:00:19;4.60;;;2.13;;
7330;SDS011;3706;49.198;7.064;2023-06-04T04:02:47;2.17;;;1.60;;
7330;SDS011;3706;49.198;7.064;2023-06-04T04:05:15;2.63;;;1.93;;
7330;SDS011;3706;49.198;7.064;2023-06-04T04:07:43;3.37;;;1.70;;
7330;SDS011;3706;49.198;7.064;2023-06-04T04:10:12;2.70;;;1.83;;
7330;SDS011;3706;49.198;7.064;2023-06-04T04:12:39;2.77;;;2.00;;
7330;SDS011;3706;49.198;7.064;2023-06-04T04:15:06;2.23;;;2.00;;
7330;SDS011;3706;49.198;7.064;2023-06-04T04:17:33;4.37;;;2.00;;
7330;SDS011;3706;49.198;7.064;2023-06-04T04:20:00;4.20;;;2.10;;
7330;SDS011;3706;49.198;7.064;2023-06-04T04:22:30;4.30;;;1.90;;
7330;SDS011;3706;49.198;7.064;2023-06-04T04:24:59;4.53;;;1.80;;
7330;SDS011;3706;49.198;7.064;2023-06-04T04:27:26;2.50;;;1.83;;
7330;SDS011;3706;49.198;7.064;2023-06-04T04:29:55;4.90;;;2.10;;
7330;SDS011;3706;49.198;7.064;2023-06-04T04:32:25;3.40;;;1.87;;
7330;SDS011;3706;49.198;7.064;2023-06-04T04:34:52;5.83;;;1.80;;
7330;SDS011;3706;49.198;7.064;2023-06-04T04:37:22;3.97;;;1.97;;
7330;SDS011;3706;49.198;7.064;2023-06-04T04:39:49;3.17;;;1.90;;
7330;SDS011;3706;49.198;7.064;2023-06-04T04:42:19;4.87;;;1.90;;
7330;SDS011;3706;49.198;7.064;2023-06-04T04:44:46;2.00;;;1.70;;
7330;SDS011;3706;49.198;7.064;2023-06-04T04:47:14;1.93;;;1.40;;
7330;SDS011;3706;49.198;7.064;2023-06-04T04:49:41;3.20;;;2.07;;
7330;SDS011;3706;49.198;7.064;2023-06-04T04:52:08;5.37;;;1.80;;
7330;SDS011;3706;49.198;7.064;2023-06-04T04:54:35;3.07;;;1.60;;
7330;SDS011;3706;49.198;7.064;2023-06-04T04:57:02;4.20;;;1.80;;
7330;SDS011;3706;49.198;7.064;2023-06-04T04:59:31;3.63;;;1.90;;
7330;SDS011;3706;49.198;7.064;2023-06-04T05:01:58;6.23;;;1.67;;
7330;SDS011;3706;49.198;7.064;2023-06-04T05:04:25;3.47;;;1.60;;
7330;SDS011;3706;49.198;7.064;2023-06-04T05:06:51;1.83;;;1.40;;
7330;SDS011;3706;49.198;7.064;2023-06-04T05:09:18;2.90;;;1.50;;
7330;SDS011;3706;49.198;7.064;2023-06-04T05:11:45;2.33;;;1.80;;
7330;SDS011;3706;49.198;7.064;2023-06-04T05:14:12;2.50;;;1.70;;
7330;SDS011;3706;49.198;7.064;2023-06-04T05:16:41;2.57;;;1.50;;
7330;SDS011;3706;49.198;7.064;2023-06-04T05:19:09;3.07;;;1.40;;
7330;SDS011;3706;49.198;7.064;2023-06-04T05:21:38;2.83;;;1.60;;
7330;SDS011;3706;49.198;7.064;2023-06-04T05:24:05;1.50;;;1.30;;
7330;SDS011;3706;49.198;7.064;2023-06-04T05:26:32;5.27;;;1.70;;
7330;SDS011;3706;49.198;7.064;2023-06-04T05:28:59;4.00;;;1.50;;
7330;SDS011;3706;49.198;7.064;2023-06-04T05:31:26;1.87;;;1.70;;
7330;SDS011;3706;49.198;7.064;2023-06-04T05:33:55;4.33;;;1.60;;
7330;SDS011;3706;49.198;7.064;2023-06-04T05:36:22;2.23;;;1.37;;
7330;SDS011;3706;49.198;7.064;2023-06-04T05:38:49;3.40;;;1.50;;
7330;SDS011;3706;49.198;7.064;2023-06-04T05:41:22;3.40;;;1.53;;
7330;SDS011;3706;49.198;7.064;2023-06-04T05:43:49;2.40;;;1.57;;
7330;SDS011;3706;49.198;7.064;2023-06-04T05:46:16;1.80;;;1.60;;
7330;SDS011;3706;49.198;7.064;2023-06-04T05:48:43;2.77;;;1.53;;
7330;SDS011;3706;49.198;7.064;2023-06-04T05:51:12;2.80;;;1.33;;
7330;SDS011;3706;49.198;7.064;2023-06-04T05:53:39;6.63;;;1.77;;
7330;SDS011;3706;49.198;7.064;2023-06-04T05:56:07;3.40;;;1.73;;
7330;SDS011;3706;49.198;7.064;2023-06-04T05:58:33;3.43;;;1.40;;
7330;SDS011;3706;49.198;7.064;2023-06-04T06:01:01;4.13;;;1.70;;
7330;SDS011;3706;49.198;7.064;2023-06-04T06:03:28;3.30;;;1.70;;
7330;SDS011;3706;49.198;7.064;2023-06-04T06:05:55;1.93;;;1.60;;
7330;SDS011;3706;49.198;7.064;2023-06-04T06:08:24;4.10;;;1.77;;
7330;SDS011;3706;49.198;7.064;2023-06-04T06:10:51;3.77;;;1.47;;
7330;SDS011;3706;49.198;7.064;2023-06-04T06:13:18;1.70;;;1.60;;
7330;SDS011;3706;49.198;7.064;2023-06-04T06:15:45;2.73;;;1.63;;
7330;SDS011;3706;49.198;7.064;2023-06-04T06:18:13;2.50;;;1.70;;
7330;SDS011;3706;49.198;7.064;2023-06-04T06:20:40;3.80;;;1.47;;
7330;SDS011;3706;49.198;7.064;2023-06-04T06:23:07;2.03;;;1.53;;
7330;SDS011;3706;49.198;7.064;2023-06-04T06:25:35;3.63;;;1.70;;
7330;SDS011;3706;49.198;7.064;2023-06-04T06:28:05;2.83;;;1.60;;
7330;SDS011;3706;49.198;7.064;2023-06-04T06:30:32;1.70;;;1.40;;
7330;SDS011;3706;49.198;7.064;2023-06-04T06:32:59;2.33;;;1.60;;
7330;SDS011;3706;49.198;7.064;2023-06-04T06:35:26;1.40;;;1.30;;
7330;SDS011;3706;49.198;7.064;2023-06-04T06:37:53;3.63;;;1.70;;
7330;SDS011;3706;49.198;7.064;2023-06-04T06:40:20;2.47;;;1.30;;
7330;SDS011;3706;49.198;7.064;2023-06-04T06:42:49;2.35;;;1.60;;
7330;SDS011;3706;49.198;7.064;2023-06-04T06:45:17;2.00;;;1.52;;
7330;SDS011;3706;49.198;7.064;2023-06-04T06:47:44;3.25;;;1.52;;
7330;SDS011;3706;49.198;7.064;2023-06-04T06:50:11;1.75;;;1.63;;
7330;SDS011;3706;49.198;7.064;2023-06-04T06:52:38;4.13;;;1.60;;
7330;SDS011;3706;49.198;7.064;2023-06-04T06:55:05;2.83;;;1.95;;
7330;SDS011;3706;49.198;7.064;2023-06-04T06:57:32;2.03;;;1.60;;
7330;SDS011;3706;49.198;7.064;2023-06-04T07:00:01;2.53;;;1.80;;
7330;SDS011;3706;49.198;7.064;2023-06-04T07:02:29;2.90;;;1.70;;
7330;SDS011;3706;49.198;7.064;2023-06-04T07:04:55;4.30;;;1.70;;
7330;SDS011;3706;49.198;7.064;2023-06-04T07:07:22;2.35;;;1.73;;
7330;SDS011;3706;49.198;7.064;2023-06-04T07:09:49;2.45;;;1.90;;
7330;SDS011;3706;49.198;7.064;2023-06-04T07:12:16;2.38;;;1.60;;
7330;SDS011;3706;49.198;7.064;2023-06-04T07:14:43;3.90;;;1.75;;
7330;SDS011;3706;49.198;7.064;2023-06-04T07:17:12;2.15;;;1.70;;
7330;SDS011;3706;49.198;7.064;2023-06-04T07:19:39;2.33;;;1.88;;
7330;SDS011;3706;49.198;7.064;2023-06-04T07:22:06;3.55;;;1.65;;
7330;SDS011;3706;49.198;7.064;2023-06-04T07:24:32;1.95;;;1.75;;
7330;SDS011;3706;49.198;7.064;2023-06-04T07:26:59;2.03;;;1.58;;
7330;SDS011;3706;49.198;7.064;2023-06-04T07:29:27;4.38;;;1.75;;
7330;SDS011;3706;49.198;7.064;2023-06-04T07:31:54;1.88;;;1.65;;
7330;SDS011;3706;49.198;7.064;2023-06-04T07:34:22;2.08;;;1.52;;
7330;SDS011;3706;49.198;7.064;2023-06-04T07:36:49;1.77;;;1.58;;
7330;SDS011;3706;49.198;7.064;2023-06-04T07:39:16;2.97;;;1.70;;
7330;SDS011;3706;49.198;7.064;2023-06-04T07:41:42;1.80;;;1.55;;
7330;SDS011;3706;49.198;7.064;2023-06-04T07:44:09;2.58;;;1.70;;
7330;SDS011;3706;49.198;7.064;2023-06-04T07:46:36;2.85;;;1.80;;
7330;SDS011;3706;49.198;7.064;2023-06-04T07:49:03;5.85;;;1.95;;
7330;SDS011;3706;49.198;7.064;2023-06-04T07:51:31;3.53;;;1.67;;
7330;SDS011;3706;49.198;7.064;2023-06-04T07:53:58;3.00;;;1.70;;
7330;SDS011;3706;49.198;7.064;2023-06-04T07:56:25;2.15;;;1.73;;
7330;SDS011;3706;49.198;7.064;2023-06-04T07:58:52;3.97;;;1.60;;
7330;SDS011;3706;49.198;7.064;2023-06-04T08:01:20;4.35;;;1.80;;
7330;SDS011;3706;49.198;7.064;2023-06-04T08:03:48;3.97;;;1.77;;
7330;SDS011;3706;49.198;7.064;2023-06-04T08:06:15;6.53;;;1.88;;
7330;SDS011;3706;49.198;7.064;2023-06-04T08:08:44;4.28;;;2.03;;
7330;SDS011;3706;49.198;7.064;2023-06-04T08:11:13;4.28;;;1.85;;
7330;SDS011;3706;49.198;7.064;2023-06-04T08:13:41;2.53;;;1.80;;
7330;SDS011;3706;49.198;7.064;2023-06-04T08:16:08;4.50;;;2.15;;
7330;SDS011;3706;49.198;7.064;2023-06-04T08:18:37;2.42;;;1.70;;
7330;SDS011;3706;49.198;7.064;2023-06-04T08:21:04;2.45;;;1.80;;
7330;SDS011;3706;49.198;7.064;2023-06-04T08:23:31;2.80;;;2.33;;
7330;SDS011;3706;49.198;7.064;2023-06-04T08:26:00;4.63;;;2.10;;
7330;SDS011;3706;49.198;7.064;2023-06-04T08:28:27;5.68;;;1.90;;
7330;SDS011;3706;49.198;7.064;2023-06-04T08:30:54;2.55;;;1.77;;
7330;SDS011;3706;49.198;7.064;2023-06-04T08:33:21;2.45;;;1.73;;
7330;SDS011;3706;49.198;7.064;2023-06-04T08:35:47;2.58;;;2.08;;
7330;SDS011;3706;49.198;7.064;2023-06-04T08:38:15;2.33;;;1.70;;
7330;SDS011;3706;49.198;7.064;2023-06-04T08:40:41;3.55;;;1.88;;
7330;SDS011;3706;49.198;7.064;2023-06-04T08:43:10;3.63;;;1.70;;
7330;SDS011;3706;49.198;7.064;2023-06-04T08:45:38;2.65;;;1.77;;
7330;SDS011;3706;49.198;7.064;2023-06-04T08:48:06;2.17;;;1.80;;
7330;SDS011;3706;49.198;7.064;2023-06-04T08:50:37;5.30;;;1.77;;
7330;SDS011;3706;49.198;7.064;2023-06-04T08:53:09;6.13;;;1.88;;
7330;SDS011;3706;49.198;7.064;2023-06-04T08:55:39;4.32;;;2.05;;
7330;SDS011;3706;49.198;7.064;2023-06-04T08:58:06;3.13;;;1.75;;
7330;SDS011;3706;49.198;7.064;2023-06-04T09:00:36;7.57;;;1.83;;
7330;SDS011;3706;49.198;7.064;2023-06-04T09:03:03;2.35;;;2.00;;
7330;SDS011;3706;49.198;7.064;2023-06-04T09:05:30;3.75;;;1.95;;
7330;SDS011;3706;49.198;7.064;2023-06-04T09:07:59;2.63;;;2.00;;
7330;SDS011;3706;49.198;7.064;2023-06-04T09:10:28;5.97;;;2.20;;
7330;SDS011;3706;49.198;7.064;2023-06-04T09:12:57;5.13;;;2.10;;
7330;SDS011;3706;49.198;7.064;2023-06-04T09:15:27;4.30;;;1.88;;
7330;SDS011;3706;49.198;7.064;2023-06-04T09:17:55;2.50;;;1.90;;
7330;SDS011;3706;49.198;7.064;2023-06-04T09:20:23;2.78;;;2.10;;
7330;SDS011;3706;49.198;7.064;2023-06-04T09:22:50;4.93;;;1.92;;
7330;SDS011;3706;49.198;7.064;2023-06-04T09:25:21;2.22;;;2.00;;
7330;SDS011;3706;49.198;7.064;2023-06-04T09:27:50;2.92;;;2.10;;
7330;SDS011;3706;49.198;7.064;2023-06-04T09:30:18;4.30;;;2.20;;
7330;SDS011;3706;49.198;7.064;2023-06-04T09:32:45;3.50;;;2.10;;
7330;SDS011;3706;49.198;7.064;2023-06-04T09:35:14;3.10;;;2.20;;
7330;SDS011;3706;49.198;7.064;2023-06-04T09:37:42;3.40;;;1.83;;
7330;SDS011;3706;49.198;7.064;2023-06-04T09:40:17;3.17;;;1.83;;
7330;SDS011;3706;49.198;7.064;2023-06-04T09:42:45;2.17;;;1.90;;
7330;SDS011;3706;49.198;7.064;2023-06-04T09:45:25;3.47;;;2.00;;
7330;SDS011;3706;49.198;7.064;2023-06-04T09:47:53;5.50;;;2.45;;
7330;SDS011;3706;49.198;7.064;2023-06-04T09:50:25;2.92;;;2.15;;
7330;SDS011;3706;49.198;7.064;2023-06-04T09:52:54;2.15;;;1.92;;
7330;SDS011;3706;49.198;7.064;2023-06-04T09:55:21;3.45;;;1.95;;
7330;SDS011;3706;49.198;7.064;2023-06-04T09:57:49;3.25;;;2.17;;
7330;SDS011;3706;49.198;7.064;2023-06-04T10:00:17;2.13;;;1.75;;
7330;SDS011;3706;49.198;7.064;2023-06-04T10:02:46;4.18;;;1.90;;
7330;SDS011;3706;49.198;7.064;2023-06-04T10:05:14;2.72;;;1.80;;
7330;SDS011;3706;49.198;7.064;2023-06-04T10:07:45;2.67;;;2.05;;
7330;SDS011;3706;49.198;7.064;2023-06-04T10:10:14;2.50;;;2.10;;
7330;SDS011;3706;49.198;7.064;2023-06-04T10:12:42;3.08;;;2.13;;
7330;SDS011;3706;49.198;7.064;2023-06-04T10:15:11;3.58;;;2.13;;
7330;SDS011;3706;49.198;7.064;2023-06-04T10:17:39;4.57;;;2.20;;
7330;SDS011;3706;49.198;7.064;2023-06-04T10:20:07;2.53;;;2.10;;
7330;SDS011;3706;49.198;7.064;2023-06-04T10:22:35;3.22;;;2.20;;
7330;SDS011;3706;49.198;7.064;2023-06-04T10:25:05;4.38;;;2.25;;
7330;SDS011;3706;49.198;7.064;2023-06-04T10:27:35;3.50;;;2.40;;
7330;SDS011;3706;49.198;7.064;2023-06-04T10:30:02;2.90;;;2.05;;
7330;SDS011;3706;49.198;7.064;2023-06-04T10:32:30;3.67;;;2.30;;
7330;SDS011;3706;49.198;7.064;2023-06-04T10:34:57;4.03;;;2.28;;
7330;SDS011;3706;49.198;7.064;2023-06-04T10:37:26;2.90;;;2.17;;
7330;SDS011;3706;49.198;7.064;2023-06-04T10:39:54;3.95;;;2.10;;
7330;SDS011;3706;49.198;7.064;2023-06-04T10:42:24;2.70;;;1.90;;
7330;SDS011;3706;49.198;7.064;2023-06-04T10:44:51;4.07;;;2.08;;
7330;SDS011;3706;49.198;7.064;2023-06-04T10:47:20;2.47;;;1.98;;
7330;SDS011;3706;49.198;7.064;2023-06-04T10:49:48;3.13;;;2.10;;
7330;SDS011;3706;49.198;7.064;2023-06-04T10:52:16;3.50;;;2.17;;
7330;SDS011;3706;49.198;7.064;2023-06-04T10:54:44;2.55;;;2.00;;
7330;SDS011;3706;49.198;7.064;2023-06-04T10:57:12;5.35;;;2.20;;
7330;SDS011;3706;49.198;7.064;2023-06-04T10:59:41;3.38;;;2.40;;
7330;SDS011;3706;49.198;7.064;2023-06-04T11:02:08;6.00;;;2.17;;
7330;SDS011;3706;49.198;7.064;2023-06-04T11:04:35;3.08;;;2.17;;
7330;SDS011;3706;49.198;7.064;2023-06-04T11:07:03;2.53;;;1.90;;
7330;SDS011;3706;49.198;7.064;2023-06-04T11:09:34;4.38;;;2.22;;
7330;SDS011;3706;49.198;7.064;2023-06-04T11:12:01;3.13;;;2.10;;
7330;SDS011;3706;49.198;7.064;2023-06-04T11:14:30;4.18;;;2.33;;
7330;SDS011;3706;49.198;7.064;2023-06-04T11:17:08;2.50;;;1.95;;
7330;SDS011;3706;49.198;7.064;2023-06-04T11:19:35;2.95;;;2.33;;
7330;SDS011;3706;49.198;7.064;2023-06-04T11:22:03;2.97;;;2.15;;
7330;SDS011;3706;49.198;7.064;2023-06-04T11:24:30;4.03;;;2.25;;
7330;SDS011;3706;49.198;7.064;2023-06-04T11:26:58;3.10;;;2.30;;
7330;SDS011;3706;49.198;7.064;2023-06-04T11:29:25;2.80;;;2.13;;
7330;SDS011;3706;49.198;7.064;2023-06-04T11:31:52;2.40;;;2.03;;
7330;SDS011;3706;49.198;7.064;2023-06-04T11:34:24;6.05;;;2.55;;
7330;SDS011;3706;49.198;7.064;2023-06-04T11:36:51;5.47;;;2.42;;
7330;SDS011;3706;49.198;7.064;2023-06-04T11:39:19;8.63;;;2.53;;
7330;SDS011;3706;49.198;7.064;2023-06-04T11:41:46;6.13;;;2.33;;
7330;SDS011;3706;49.198;7.064;2023-06-04T11:44:13;4.93;;;2.47;;
7330;SDS011;3706;49.198;7.064;2023-06-04T11:46:40;4.32;;;2.55;;
7330;SDS011;3706;49.198;7.064;2023-06-04T11:49:11;7.05;;;2.60;;
7330;SDS011;3706;49.198;7.064;2023-06-04T11:51:46;2.78;;;2.33;;
7330;SDS011;3706;49.198;7.064;2023-06-04T11:54:13;3.90;;;2.40;;
7330;SDS011;3706;49.198;7.064;2023-06-04T11:56:40;3.28;;;2.40;;
7330;SDS011;3706;49.198;7.064;2023-06-04T11:59:10;4.93;;;2.25;;
7330;SDS011;3706;49.198;7.064;2023-06-04T12:01:38;4.78;;;2.63;;
7330;SDS011;3706;49.198;7.064;2023-06-04T12:04:11;5.97;;;2.15;;
7330;SDS011;3706;49.198;7.064;2023-06-04T12:06:38;4.60;;;2.35;;
7330;SDS011;3706;49.198;7.064;2023-06-04T12:09:07;5.35;;;1.95;;
7330;SDS011;3706;49.198;7.064;2023-06-04T12:11:34;4.97;;;2.63;;
7330;SDS011;3706;49.198;7.064;2023-06-04T12:14:03;3.00;;;2.33;;
7330;SDS011;3706;49.198;7.064;2023-06-04T12:16:31;2.88;;;2.42;;
7330;SDS011;3706;49.198;7.064;2023-06-04T12:19:05;5.30;;;2.50;;
7330;SDS011;3706;49.198;7.064;2023-06-04T12:21:33;4.32;;;2.70;;
7330;SDS011;3706;49.198;7.064;2023-06-04T12:24:08;3.22;;;2.45;;
7330;SDS011;3706;49.198;7.064;2023-06-04T12:26:36;3.50;;;2.40;;
7330;SDS011;3706;49.198;7.064;2023-06-04T12:29:09;5.90;;;2.67;;
7330;SDS011;3706;49.198;7.064;2023-06-04T12:31:37;3.95;;;2.60;;
7330;SDS011;3706;49.198;7.064;2023-06-04T12:34:05;3.08;;;2.17;;
7330;SDS011;3706;49.198;7.064;2023-06-04T12:36:32;3.88;;;2.67;;
7330;SDS011;3706;49.198;7.064;2023-06-04T12:39:00;2.80;;;2.28;;
7330;SDS011;3706;49.198;7.064;2023-06-04T12:41:29;4.32;;;2.70;;
7330;SDS011;3706;49.198;7.064;2023-06-04T12:43:58;3.47;;;2.80;;
7330;SDS011;3706;49.198;7.064;2023-06-04T12:46:26;3.75;;;2.67;;
7330;SDS011;3706;49.198;7.064;2023-06-04T12:48:54;3.30;;;2.63;;
7330;SDS011;3706;49.198;7.064;2023-06-04T12:51:21;4.03;;;2.60;;
7330;SDS011;3706;49.198;7.064;2023-06-04T12:53:48;3.90;;;2.25;;
7330;SDS011;3706;49.198;7.064;2023-06-04T12:56:16;3.92;;;2.80;;
7330;SDS011;3706;49.198;7.064;2023-06-04T12:58:44;2.63;;;2.42;;
7330;SDS011;3706;49.198;7.064;2023-06-04T13:01:11;4.45;;;2.45;;
7330;SDS011;3706;49.198;7.064;2023-06-04T13:03:39;4.70;;;2.78;;
7330;SDS011;3706;49.198;7.064;2023-06-04T13:06:06;4.50;;;2.65;;
7330;SDS011;3706;49.198;7.064;2023-06-04T13:08:33;2.40;;;1.98;;
7330;SDS011;3706;49.198;7.064;2023-06-04T13:11:00;4.57;;;2.47;;
7330;SDS011;3706;49.198;7.064;2023-06-04T13:13:27;3.72;;;2.40;;
7330;SDS011;3706;49.198;7.064;2023-06-04T13:15:56;2.53;;;2.33;;
7330;SDS011;3706;49.198;7.064;2023-06-04T13:18:23;4.65;;;2.45;;
7330;SDS011;3706;49.198;7.064;2023-06-04T13:20:50;4.03;;;2.42;;
7330;SDS011;3706;49.198;7.064;2023-06-04T13:23:17;5.03;;;3.00;;
7330;SDS011;3706;49.198;7.064;2023-06-04T13:25:44;3.83;;;2.80;;
7330;SDS011;3706;49.198;7.064;2023-06-04T13:28:11;5.60;;;2.95;;
7330;SDS011;3706;49.198;7.064;2023-06-04T13:30:38;3.97;;;2.67;;
7330;SDS011;3706;49.198;7.064;2023-06-04T13:33:06;4.30;;;2.60;;
7330;SDS011;3706;49.198;7.064;2023-06-04T13:35:36;3.43;;;2.63;;
7330;SDS011;3706;49.198;7.064;2023-06-04T13:38:04;4.47;;;2.47;;
7330;SDS011;3706;49.198;7.064;2023-06-04T13:40:31;5.23;;;2.43;;
7330;SDS011;3706;49.198;7.064;2023-06-04T13:43:00;2.37;;;2.17;;
7330;SDS011;3706;49.198;7.064;2023-06-04T13:45:27;2.93;;;2.63;;
7330;SDS011;3706;49.198;7.064;2023-06-04T13:47:59;4.00;;;2.53;;
7330;SDS011;3706;49.198;7.064;2023-06-04T13:50:33;6.63;;;2.30;;
7330;SDS011;3706;49.198;7.064;2023-06-04T13:53:00;3.43;;;2.70;;
7330;SDS011;3706;49.198;7.064;2023-06-04T13:55:27;3.80;;;2.30;;
7330;SDS011;3706;49.198;7.064;2023-06-04T13:57:55;3.53;;;2.60;;
7330;SDS011;3706;49.198;7.064;2023-06-04T14:00:22;3.17;;;2.87;;
7330;SDS011;3706;49.198;7.064;2023-06-04T14:02:49;4.27;;;2.87;;
7330;SDS011;3706;49.198;7.064;2023-06-04T14:05:17;2.77;;;2.50;;
7330;SDS011;3706;49.198;7.064;2023-06-04T14:07:46;5.33;;;2.50;;
7330;SDS011;3706;49.198;7.064;2023-06-04T14:10:13;4.50;;;2.50;;
7330;SDS011;3706;49.198;7.064;2023-06-04T14:12:40;2.97;;;2.67;;
7330;SDS011;3706;49.198;7.064;2023-06-04T14:15:10;4.93;;;2.70;;
7330;SDS011;3706;49.198;7.064;2023-06-04T14:17:38;3.07;;;2.60;;
7330;SDS011;3706;49.198;7.064;2023-06-04T14:20:05;2.83;;;2.20;;
7330;SDS011;3706;49.198;7.064;2023-06-04T14:22:33;4.23;;;2.67;;
7330;SDS011;3706;49.198;7.064;2023-06-04T14:25:02;3.67;;;2.50;;
7330;SDS011;3706;49.198;7.064;2023-06-04T14:27:29;4.27;;;2.80;;
7330;SDS011;3706;49.198;7.064;2023-06-04T14:29:57;4.13;;;2.43;;
7330;SDS011;3706;49.198;7.064;2023-06-04T14:32:24;3.03;;;2.70;;
7330;SDS011;3706;49.198;7.064;2023-06-04T14:34:51;8.47;;;3.00;;
7330;SDS011;3706;49.198;7.064;2023-06-04T14:37:17;4.00;;;2.50;;
7330;SDS011;3706;49.198;7.064;2023-06-04T14:39:46;4.83;;;2.43;;
7330;SDS011;3706;49.198;7.064;2023-06-04T14:42:14;4.43;;;3.27;;
7330;SDS011;3706;49.198;7.064;2023-06-04T14:44:42;5.83;;;3.30;;
7330;SDS011;3706;49.198;7.064;2023-06-04T14:47:10;5.20;;;3.20;;
7330;SDS011;3706;49.198;7.064;2023-06-04T14:49:37;3.23;;;2.60;;
7330;SDS011;3706;49.198;7.064;2023-06-04T14:52:04;3.73;;;2.50;;
7330;SDS011;3706;49.198;7.064;2023-06-04T14:54:31;3.30;;;2.40;;
7330;SDS011;3706;49.198;7.064;2023-06-04T14:56:58;4.27;;;2.53;;
7330;SDS011;3706;49.198;7.064;2023-06-04T14:59:27;7.90;;;2.70;;
7330;SDS011;3706;49.198;7.064;2023-06-04T15:01:54;4.10;;;2.50;;
7330;SDS011;3706;49.198;7.064;2023-06-04T15:04:24;5.17;;;2.40;;
7330;SDS011;3706;49.198;7.064;2023-06-04T15:06:51;4.03;;;2.70;;
7330;SDS011;3706;49.198;7.064;2023-06-04T15:09:18;4.57;;;2.67;;
7330;SDS011;3706;49.198;7.064;2023-06-04T15:11:45;4.30;;;2.93;;
7330;SDS011;3706;49.198;7.064;2023-06-04T15:14:12;4.27;;;2.90;;
7330;SDS011;3706;49.198;7.064;2023-06-04T15:16:40;5.80;;;3.07;;
7330;SDS011;3706;49.198;7.064;2023-06-04T15:19:08;3.43;;;2.80;;
7330;SDS011;3706;49.198;7.064;2023-06-04T15:21:35;5.27;;;3.50;;